Time,TemperatureF,DewpointF,PressureIn,WindDirection,WindDirectionDegrees,WindSpeedMPH,WindSpeedGustMPH,Humidity,HourlyPrecipIn,Conditions,Clouds,dailyrainin,SoftwareType,DateUTC
2013-06-12 00:01:00,51.1,46.8,30.05,SSE,157,0.0,0.0,85,0.00,,CLR,0.00,VWS V14.01,2013-06-12 07:01:00,
2013-06-12 00:02:00,51.0,46.7,30.05,SSE,157,1.0,2.0,85,0.00,,CLR,0.00,VWS V14.01,2013-06-12 07:02:00,
2013-06-12 00:03:00,51.0,46.7,30.05,SSE,157,1.0,2.0,85,0.00,,CLR,0.00,VWS V14.01,2013-06-12 07:03:00,
2013-06-12 00:04:00,51.0,46.7,30.05,SSE,157,0.0,2.0,85,0.00,,CLR,0.00,VWS V14.01,2013-06-12 07:04:00,
2013-06-12 00:07:00,50.8,46.8,30.05,SSE,157,0.0,2.0,86,0.00,,CLR,0.00,VWS V14.01,2013-06-12 07:07:00,
2013-06-12 00:08:00,50.8,46.8,30.05,SSE,157,0.0,2.0,86,0.00,,CLR,0.00,VWS V14.01,2013-06-12 07:08:00,
2013-06-12 00:09:00,50.8,46.8,30.05,SSE,157,0.0,2.0,86,0.00,,CLR,0.00,VWS V14.01,2013-06-12 07:09:00,
2013-06-12 00:11:00,50.7,46.7,30.05,SSE,157,0.0,0.0,86,0.00,,CLR,0.00,VWS V14.01,2013-06-12 07:11:00,
2013-06-12 00:13:00,50.5,46.5,30.05,SSE,157,0.0,0.0,86,0.00,,CLR,0.00,VWS V14.01,2013-06-12 07:13:00,
2013-06-12 00:14:00,50.5,46.5,30.05,SSE,157,0.0,0.0,86,0.00,,CLR,0.00,VWS V14.01,2013-06-12 07:14:00,
2013-06-12 00:15:00,50.5,46.5,30.05,SSE,157,0.0,0.0,86,0.00,,CLR,0.00,VWS V14.01,2013-06-12 07:15:00,
2013-06-12 00:17:00,50.5,46.5,30.05,SSE,157,0.0,0.0,86,0.00,,CLR,0.00,VWS V14.01,2013-06-12 07:17:00,
2013-06-12 00:19:00,50.4,46.4,30.05,SSE,157,0.0,0.0,86,0.00,,CLR,0.00,VWS V14.01,2013-06-12 07:19:00,
2013-06-12 00:20:00,50.4,46.4,30.05,SSE,157,0.0,0.0,86,0.00,,CLR,0.00,VWS V14.01,2013-06-12 07:20:00,
2013-06-12 00:21:00,50.4,46.4,30.05,SSE,157,0.0,0.0,86,0.00,,CLR,0.00,VWS V14.01,2013-06-12 07:21:00,
2013-06-12 00:24:00,50.2,46.2,30.05,SSE,157,0.0,0.0,86,0.00,,CLR,0.00,VWS V14.01,2013-06-12 07:24:00,
2013-06-12 00:25:00,50.2,46.2,30.05,SSE,157,0.0,0.0,86,0.00,,CLR,0.00,VWS V14.01,2013-06-12 07:25:00,
2013-06-12 00:26:00,50.2,46.2,30.05,SSE,157,0.0,0.0,86,0.00,,CLR,0.00,VWS V14.01,2013-06-12 07:26:00,
2013-06-12 00:30:00,49.9,46.2,30.05,SSE,158,0.0,1.0,87,0.00,,CLR,0.00,VWS V14.01,2013-06-12 07:30:00,
2013-06-12 00:31:00,49.9,46.2,30.05,SSE,158,0.0,1.0,87,0.00,,CLR,0.00,VWS V14.01,2013-06-12 07:31:00,
2013-06-12 00:33:00,49.9,46.2,30.05,SSE,158,1.0,1.0,87,0.00,,CLR,0.00,VWS V14.01,2013-06-12 07:33:00,
2013-06-12 00:36:00,49.8,46.1,30.05,SSE,158,0.0,1.0,87,0.00,,CLR,0.00,VWS V14.01,2013-06-12 07:36:00,
2013-06-12 00:38:00,49.8,46.4,30.05,SSE,158,0.0,0.0,88,0.00,,CLR,0.00,VWS V14.01,2013-06-12 07:38:00,
2013-06-12 00:40:00,49.8,46.4,30.05,SSE,158,0.0,0.0,88,0.00,,CLR,0.00,VWS V14.01,2013-06-12 07:40:00,
2013-06-12 00:41:00,49.8,46.4,30.05,SSE,158,1.0,1.0,88,0.00,,CLR,0.00,VWS V14.01,2013-06-12 07:41:00,
2013-06-12 00:42:00,49.8,46.4,30.05,SSE,158,0.0,1.0,88,0.00,,CLR,0.00,VWS V14.01,2013-06-12 07:42:00,
2013-06-12 00:47:00,49.6,46.2,30.05,SSE,158,0.0,1.0,88,0.00,,CLR,0.00,VWS V14.01,2013-06-12 07:47:00,
2013-06-12 00:48:00,49.6,46.2,30.05,SSE,158,0.0,1.0,88,0.00,,CLR,0.00,VWS V14.01,2013-06-12 07:48:00,
2013-06-12 00:51:00,49.6,46.5,30.05,SSE,158,0.0,1.0,89,0.00,,CLR,0.00,VWS V14.01,2013-06-12 07:51:00,
2013-06-12 00:52:00,49.6,46.5,30.05,SSE,158,0.0,0.0,89,0.00,,CLR,0.00,VWS V14.01,2013-06-12 07:52:00,
2013-06-12 00:53:00,49.6,46.5,30.05,SSE,158,0.0,0.0,89,0.00,,CLR,0.00,VWS V14.01,2013-06-12 07:53:00,
2013-06-12 00:55:00,49.6,46.5,30.05,SSE,158,1.0,2.0,89,0.00,,CLR,0.00,VWS V14.01,2013-06-12 07:55:00,
2013-06-12 00:58:00,49.5,46.4,30.05,SSE,158,0.0,2.0,89,0.00,,CLR,0.00,VWS V14.01,2013-06-12 07:58:00,
2013-06-12 00:59:00,49.5,46.4,30.05,SSE,158,0.0,2.0,89,0.00,,CLR,0.00,VWS V14.01,2013-06-12 07:59:00,
2013-06-12 01:00:00,49.5,46.4,30.05,SSE,158,0.0,2.0,89,0.00,,CLR,0.00,VWS V14.01,2013-06-12 08:00:00,
2013-06-12 01:01:00,49.5,46.4,30.05,SSE,158,0.0,2.0,89,0.00,,CLR,0.00,VWS V14.01,2013-06-12 08:01:00,
2013-06-12 01:04:00,49.5,46.4,30.05,SSE,151,1.0,2.0,89,0.00,,CLR,0.00,VWS V14.01,2013-06-12 08:04:00,
2013-06-12 01:06:00,49.5,46.4,30.05,SSE,158,1.0,2.0,89,0.00,,CLR,0.00,VWS V14.01,2013-06-12 08:06:00,
2013-06-12 01:07:00,49.5,46.4,30.05,SSE,158,0.0,1.0,89,0.00,,CLR,0.00,VWS V14.01,2013-06-12 08:07:00,
2013-06-12 01:08:00,49.4,46.3,30.05,SSE,158,0.0,1.0,89,0.00,,CLR,0.00,VWS V14.01,2013-06-12 08:08:00,
2013-06-12 01:09:00,49.4,46.3,30.05,SSE,158,0.0,1.0,89,0.00,,CLR,0.00,VWS V14.01,2013-06-12 08:09:00,
2013-06-12 01:14:00,49.4,46.3,30.05,SSE,158,0.0,0.0,89,0.00,,CLR,0.00,VWS V14.01,2013-06-12 08:14:00,
2013-06-12 01:15:00,49.4,46.3,30.05,SSE,158,0.0,0.0,89,0.00,,CLR,0.00,VWS V14.01,2013-06-12 08:15:00,
2013-06-12 01:18:00,49.4,46.3,30.05,SSE,158,0.0,1.0,89,0.00,,CLR,0.00,VWS V14.01,2013-06-12 08:18:00,
2013-06-12 01:21:00,49.4,46.3,30.05,SSE,158,0.0,1.0,89,0.00,,CLR,0.00,VWS V14.01,2013-06-12 08:21:00,
2013-06-12 01:22:00,49.4,46.3,30.05,SSE,158,0.0,0.0,89,0.00,,CLR,0.00,VWS V14.01,2013-06-12 08:22:00,
2013-06-12 01:23:00,49.5,46.4,30.05,SSE,158,0.0,0.0,89,0.00,,CLR,0.00,VWS V14.01,2013-06-12 08:23:00,
2013-06-12 01:24:00,49.5,46.4,30.05,SSE,158,0.0,1.0,89,0.00,,CLR,0.00,VWS V14.01,2013-06-12 08:24:00,
2013-06-12 01:25:00,49.5,46.4,30.05,SSE,158,0.0,1.0,89,0.00,,CLR,0.00,VWS V14.01,2013-06-12 08:25:00,
2013-06-12 01:27:00,49.5,46.4,30.05,SSE,158,0.0,1.0,89,0.00,,CLR,0.00,VWS V14.01,2013-06-12 08:27:00,
2013-06-12 01:28:00,49.5,46.4,30.05,SSE,158,0.0,1.0,89,0.00,,CLR,0.00,VWS V14.01,2013-06-12 08:28:00,
2013-06-12 01:29:00,49.5,46.4,30.05,SSE,158,0.0,1.0,89,0.00,,CLR,0.00,VWS V14.01,2013-06-12 08:29:00,
2013-06-12 01:31:00,49.5,46.4,30.05,SSE,158,0.0,1.0,89,0.00,,CLR,0.00,VWS V14.01,2013-06-12 08:31:00,
2013-06-12 01:32:00,49.5,46.4,30.05,SSE,158,0.0,0.0,89,0.00,,CLR,0.00,VWS V14.01,2013-06-12 08:32:00,
2013-06-12 01:33:00,49.5,46.4,30.05,SSE,158,0.0,0.0,89,0.00,,CLR,0.00,VWS V14.01,2013-06-12 08:33:00,
2013-06-12 01:34:00,49.5,46.4,30.05,SSE,158,0.0,0.0,89,0.00,,CLR,0.00,VWS V14.01,2013-06-12 08:34:00,
2013-06-12 01:36:00,49.5,46.4,30.05,SSE,158,0.0,0.0,89,0.00,,CLR,0.00,VWS V14.01,2013-06-12 08:36:00,
2013-06-12 01:38:00,49.5,46.4,30.05,SSE,158,0.0,0.0,89,0.00,,CLR,0.00,VWS V14.01,2013-06-12 08:38:00,
2013-06-12 01:41:00,49.5,46.4,30.05,SSE,158,0.0,0.0,89,0.00,,CLR,0.00,VWS V14.01,2013-06-12 08:41:00,
2013-06-12 01:43:00,49.5,46.4,30.05,SSE,158,0.0,0.0,89,0.00,,CLR,0.00,VWS V14.01,2013-06-12 08:43:00,
2013-06-12 01:44:00,49.5,46.4,30.05,SSE,158,0.0,0.0,89,0.00,,CLR,0.00,VWS V14.01,2013-06-12 08:44:00,
2013-06-12 01:46:00,49.5,46.4,30.05,SSE,158,0.0,2.0,89,0.00,,CLR,0.00,VWS V14.01,2013-06-12 08:46:00,
2013-06-12 01:48:00,49.6,46.5,30.05,SSE,158,0.0,0.0,89,0.00,,CLR,0.00,VWS V14.01,2013-06-12 08:48:00,
2013-06-12 01:50:00,49.6,46.5,30.05,SSE,158,2.0,2.0,89,0.00,,CLR,0.00,VWS V14.01,2013-06-12 08:50:00,
2013-06-12 01:51:00,49.6,46.5,30.05,SSE,158,0.0,2.0,89,0.00,,CLR,0.00,VWS V14.01,2013-06-12 08:51:00,
2013-06-12 01:54:00,49.6,46.5,30.05,SSE,158,1.0,2.0,89,0.00,,CLR,0.00,VWS V14.01,2013-06-12 08:54:00,
2013-06-12 01:55:00,49.6,46.8,30.05,SSE,158,1.0,2.0,90,0.00,,CLR,0.00,VWS V14.01,2013-06-12 08:55:00,
2013-06-12 01:56:00,49.6,46.8,30.05,SSE,158,1.0,2.0,90,0.00,,CLR,0.00,VWS V14.01,2013-06-12 08:56:00,
2013-06-12 01:57:00,49.6,46.8,30.05,SSE,158,1.0,3.0,90,0.00,,CLR,0.00,VWS V14.01,2013-06-12 08:57:00,
2013-06-12 02:00:00,49.8,47.0,30.05,SSE,158,0.0,3.0,90,0.00,,CLR,0.00,VWS V14.01,2013-06-12 09:00:00,
2013-06-12 02:02:00,49.8,47.0,30.05,SSE,158,0.0,0.0,90,0.00,,OVC065,0.00,VWS V14.01,2013-06-12 09:02:00,
2013-06-12 02:03:00,49.8,47.0,30.05,SSE,158,1.0,1.0,90,0.00,,OVC065,0.00,VWS V14.01,2013-06-12 09:03:00,
2013-06-12 02:05:00,49.8,47.0,30.05,SSE,158,2.0,2.0,90,0.00,,OVC065,0.00,VWS V14.01,2013-06-12 09:05:00,
2013-06-12 02:08:00,49.8,47.0,30.05,SSE,158,1.0,2.0,90,0.00,,OVC065,0.00,VWS V14.01,2013-06-12 09:08:00,
2013-06-12 02:09:00,49.8,47.0,30.05,SSE,158,0.0,2.0,90,0.00,,OVC065,0.00,VWS V14.01,2013-06-12 09:09:00,
2013-06-12 02:10:00,49.8,47.0,30.05,SSE,158,0.0,2.0,90,0.00,,OVC065,0.00,VWS V14.01,2013-06-12 09:10:00,
2013-06-12 02:11:00,49.8,47.0,30.05,SSE,158,0.0,2.0,90,0.00,,OVC065,0.00,VWS V14.01,2013-06-12 09:11:00,
2013-06-12 02:14:00,49.8,47.0,30.05,SSE,158,1.0,1.0,90,0.00,,OVC065,0.00,VWS V14.01,2013-06-12 09:14:00,
2013-06-12 02:15:00,49.8,47.0,30.05,SSE,158,1.0,2.0,90,0.00,,OVC065,0.00,VWS V14.01,2013-06-12 09:15:00,
2013-06-12 02:16:00,49.8,47.0,30.05,SSE,158,2.0,2.0,90,0.00,,OVC065,0.00,VWS V14.01,2013-06-12 09:16:00,
2013-06-12 02:17:00,49.8,47.0,30.05,SSE,158,2.0,2.0,90,0.00,,OVC065,0.00,VWS V14.01,2013-06-12 09:17:00,
2013-06-12 02:19:00,49.8,47.0,30.05,SSE,158,0.0,2.0,90,0.00,,OVC065,0.00,VWS V14.01,2013-06-12 09:19:00,
2013-06-12 02:20:00,49.8,47.0,30.05,SSE,158,0.0,2.0,90,0.00,,OVC065,0.00,VWS V14.01,2013-06-12 09:20:00,
2013-06-12 02:22:00,49.9,47.1,30.05,SSE,158,0.0,0.0,90,0.00,,OVC065,0.00,VWS V14.01,2013-06-12 09:22:00,
2013-06-12 02:25:00,49.9,47.1,30.05,SSE,158,0.0,0.0,90,0.00,,OVC065,0.00,VWS V14.01,2013-06-12 09:25:00,
2013-06-12 02:26:00,49.9,47.1,30.05,SSE,158,0.0,0.0,90,0.00,,OVC065,0.00,VWS V14.01,2013-06-12 09:26:00,
2013-06-12 02:28:00,49.9,47.1,30.05,SSE,158,0.0,0.0,90,0.00,,OVC065,0.00,VWS V14.01,2013-06-12 09:28:00,
2013-06-12 02:29:00,49.9,47.1,30.05,SSE,158,0.0,0.0,90,0.00,,OVC065,0.00,VWS V14.01,2013-06-12 09:29:00,
2013-06-12 02:30:00,49.9,47.1,30.05,SSE,158,0.0,0.0,90,0.00,,OVC065,0.00,VWS V14.01,2013-06-12 09:30:00,
2013-06-12 02:32:00,49.9,47.1,30.05,SSE,158,0.0,0.0,90,0.00,,OVC065,0.00,VWS V14.01,2013-06-12 09:32:00,
2013-06-12 02:33:00,49.9,47.1,30.05,SSE,158,0.0,0.0,90,0.00,,OVC065,0.00,VWS V14.01,2013-06-12 09:33:00,
2013-06-12 02:36:00,49.9,47.1,30.05,SSE,158,0.0,0.0,90,0.00,,OVC065,0.00,VWS V14.01,2013-06-12 09:36:00,
2013-06-12 02:40:00,49.9,47.1,30.05,SSE,158,0.0,0.0,90,0.00,,OVC065,0.00,VWS V14.01,2013-06-12 09:40:00,
2013-06-12 02:41:00,49.9,47.1,30.05,SSE,158,0.0,0.0,90,0.00,,OVC065,0.00,VWS V14.01,2013-06-12 09:41:00,
2013-06-12 02:43:00,49.9,47.1,30.05,SSE,158,0.0,0.0,90,0.00,,OVC065,0.00,VWS V14.01,2013-06-12 09:43:00,
2013-06-12 02:45:00,49.9,47.1,30.05,SSE,158,0.0,0.0,90,0.00,,OVC065,0.00,VWS V14.01,2013-06-12 09:45:00,
2013-06-12 02:46:00,49.9,47.1,30.05,SSE,158,0.0,0.0,90,0.00,,OVC065,0.00,VWS V14.01,2013-06-12 09:46:00,
2013-06-12 02:49:00,49.9,47.1,30.05,SSE,158,0.0,0.0,90,0.00,,OVC065,0.00,VWS V14.01,2013-06-12 09:49:00,
2013-06-12 02:50:00,49.9,47.1,30.05,SSE,158,0.0,0.0,90,0.00,,OVC065,0.00,VWS V14.01,2013-06-12 09:50:00,
2013-06-12 02:51:00,49.9,47.1,30.05,SSE,158,0.0,0.0,90,0.00,,OVC065,0.00,VWS V14.01,2013-06-12 09:51:00,
2013-06-12 02:54:00,49.9,47.1,30.05,SSE,158,0.0,0.0,90,0.00,,OVC065,0.00,VWS V14.01,2013-06-12 09:54:00,
2013-06-12 02:56:00,49.9,47.1,30.05,SSE,158,0.0,2.0,90,0.00,,OVC065,0.00,VWS V14.01,2013-06-12 09:56:00,
2013-06-12 02:57:00,49.9,47.1,30.05,SSE,158,0.0,0.0,90,0.00,,OVC065,0.00,VWS V14.01,2013-06-12 09:57:00,
2013-06-12 03:01:00,49.9,47.1,30.05,SSE,158,0.0,0.0,90,0.00,,OVC026,0.00,VWS V14.01,2013-06-12 10:01:00,
2013-06-12 03:02:00,49.9,47.1,30.05,SSE,158,0.0,0.0,90,0.00,,OVC026,0.00,VWS V14.01,2013-06-12 10:02:00,
2013-06-12 03:03:00,49.9,47.1,30.05,SSE,158,0.0,0.0,90,0.00,,OVC026,0.00,VWS V14.01,2013-06-12 10:03:00,
2013-06-12 03:06:00,49.9,47.1,30.05,SSE,158,1.0,1.0,90,0.00,,OVC026,0.00,VWS V14.01,2013-06-12 10:06:00,
2013-06-12 03:07:00,49.9,46.8,30.05,SSE,158,0.0,1.0,89,0.00,,OVC026,0.00,VWS V14.01,2013-06-12 10:07:00,
2013-06-12 03:08:00,49.9,47.1,30.05,SSE,158,0.0,1.0,90,0.00,,OVC026,0.00,VWS V14.01,2013-06-12 10:08:00,
2013-06-12 03:09:00,49.9,46.8,30.05,SSE,158,0.0,1.0,89,0.00,,OVC026,0.00,VWS V14.01,2013-06-12 10:09:00,
2013-06-12 03:10:00,49.9,46.8,30.05,SSE,158,0.0,1.0,89,0.00,,OVC026,0.00,VWS V14.01,2013-06-12 10:10:00,
2013-06-12 03:13:00,49.9,46.8,30.05,ESE,104,3.0,3.0,89,0.00,,OVC026,0.00,VWS V14.01,2013-06-12 10:13:00,
2013-06-12 03:14:00,49.9,46.8,30.05,ESE,120,1.0,5.0,89,0.00,,OVC026,0.00,VWS V14.01,2013-06-12 10:14:00,
2013-06-12 03:15:00,50.1,47.0,30.05,ESE,120,0.0,5.0,89,0.00,,OVC026,0.00,VWS V14.01,2013-06-12 10:15:00,
2013-06-12 03:16:00,50.1,47.0,30.05,ESE,120,2.0,5.0,89,0.00,,OVC026,0.00,VWS V14.01,2013-06-12 10:16:00,
2013-06-12 03:25:00,50.1,47.0,30.05,ESE,120,0.0,0.0,89,0.00,,OVC026,0.00,VWS V14.01,2013-06-12 10:25:00,
2013-06-12 03:26:00,50.1,47.0,30.05,ESE,120,2.0,2.0,89,0.00,,OVC026,0.00,VWS V14.01,2013-06-12 10:26:00,
2013-06-12 03:31:00,50.2,47.1,30.05,ESE,120,0.0,3.0,89,0.00,,OVC026,0.00,VWS V14.01,2013-06-12 10:31:00,
2013-06-12 03:32:00,50.2,47.1,30.05,ESE,120,0.0,0.0,89,0.00,,OVC026,0.00,VWS V14.01,2013-06-12 10:32:00,
2013-06-12 03:34:00,50.2,47.1,30.05,ESE,120,0.0,0.0,89,0.00,,OVC026,0.00,VWS V14.01,2013-06-12 10:34:00,
2013-06-12 03:36:00,50.2,47.1,30.05,ESE,120,0.0,0.0,89,0.00,,OVC026,0.00,VWS V14.01,2013-06-12 10:36:00,
2013-06-12 03:38:00,50.2,47.1,30.05,ESE,120,0.0,0.0,89,0.00,,OVC026,0.00,VWS V14.01,2013-06-12 10:38:00,
2013-06-12 03:41:00,50.2,47.1,30.05,ESE,120,0.0,0.0,89,0.00,,OVC026,0.00,VWS V14.01,2013-06-12 10:41:00,
2013-06-12 03:42:00,50.2,47.1,30.05,ESE,120,0.0,0.0,89,0.00,,OVC026,0.00,VWS V14.01,2013-06-12 10:42:00,
2013-06-12 03:43:00,50.2,47.1,30.05,ESE,120,0.0,0.0,89,0.00,,OVC026,0.00,VWS V14.01,2013-06-12 10:43:00,
2013-06-12 03:46:00,50.2,47.1,30.05,ESE,120,1.0,1.0,89,0.00,,OVC026,0.00,VWS V14.01,2013-06-12 10:46:00,
2013-06-12 03:47:00,50.2,46.8,30.05,ESE,120,1.0,2.0,88,0.00,,OVC026,0.00,VWS V14.01,2013-06-12 10:47:00,
2013-06-12 03:49:00,50.2,46.8,30.05,ESE,120,0.0,2.0,88,0.00,,OVC026,0.00,VWS V14.01,2013-06-12 10:49:00,
2013-06-12 03:50:00,50.2,46.8,30.05,ESE,120,0.0,2.0,88,0.00,,OVC026,0.00,VWS V14.01,2013-06-12 10:50:00,
2013-06-12 03:55:00,50.2,46.8,30.05,ESE,120,2.0,2.0,88,0.00,,OVC026,0.00,VWS V14.01,2013-06-12 10:55:00,
2013-06-12 03:56:00,50.2,46.8,30.05,ESE,120,1.0,2.0,88,0.00,,OVC026,0.00,VWS V14.01,2013-06-12 10:56:00,
2013-06-12 03:59:00,50.2,46.8,30.05,ESE,120,1.0,3.0,88,0.00,,OVC026,0.00,VWS V14.01,2013-06-12 10:59:00,
2013-06-12 04:00:00,50.2,46.8,30.05,ESE,120,1.0,3.0,88,0.00,,OVC026,0.00,VWS V14.01,2013-06-12 11:00:00,
2013-06-12 04:01:00,50.2,46.8,30.05,ESE,120,2.0,3.0,88,0.00,,OVC026,0.00,VWS V14.01,2013-06-12 11:01:00,
2013-06-12 04:02:00,50.2,46.8,30.05,ESE,120,1.0,2.0,88,0.00,,OVC026,0.00,VWS V14.01,2013-06-12 11:02:00,
2013-06-12 04:04:00,50.4,47.0,30.05,ESE,120,2.0,2.0,88,0.00,,OVC026,0.00,VWS V14.01,2013-06-12 11:04:00,
2013-06-12 04:05:00,50.4,47.0,30.05,ESE,120,1.0,2.0,88,0.00,,OVC026,0.00,VWS V14.01,2013-06-12 11:05:00,
2013-06-12 04:08:00,50.4,47.0,30.05,ESE,120,0.0,1.0,88,0.00,,OVC026,0.00,VWS V14.01,2013-06-12 11:08:00,
2013-06-12 04:11:00,50.4,47.0,30.05,ESE,120,0.0,2.0,88,0.00,,OVC026,0.00,VWS V14.01,2013-06-12 11:11:00,
2013-06-12 04:12:00,50.4,47.0,30.05,ESE,120,0.0,1.0,88,0.00,,OVC026,0.00,VWS V14.01,2013-06-12 11:12:00,
2013-06-12 04:15:00,50.2,47.1,30.05,ESE,120,0.0,1.0,89,0.00,,OVC026,0.00,VWS V14.01,2013-06-12 11:15:00,
2013-06-12 04:17:00,50.2,47.1,30.05,ESE,120,0.0,0.0,89,0.00,,OVC026,0.00,VWS V14.01,2013-06-12 11:17:00,
2013-06-12 04:18:00,50.2,47.1,30.05,ESE,120,0.0,0.0,89,0.00,,OVC026,0.00,VWS V14.01,2013-06-12 11:18:00,
2013-06-12 04:20:00,50.2,47.1,30.05,ESE,120,0.0,1.0,89,0.00,,OVC026,0.00,VWS V14.01,2013-06-12 11:20:00,
2013-06-12 04:22:00,50.2,47.1,30.05,ESE,120,0.0,1.0,89,0.00,,OVC026,0.00,VWS V14.01,2013-06-12 11:22:00,
2013-06-12 04:23:00,50.2,47.1,30.05,ESE,120,0.0,2.0,89,0.00,,OVC026,0.00,VWS V14.01,2013-06-12 11:23:00,
2013-06-12 04:24:00,50.2,47.1,30.05,ESE,120,1.0,2.0,89,0.00,,OVC026,0.00,VWS V14.01,2013-06-12 11:24:00,
2013-06-12 04:26:00,50.2,47.1,30.05,ESE,120,0.0,2.0,89,0.00,,OVC026,0.00,VWS V14.01,2013-06-12 11:26:00,
2013-06-12 04:29:00,50.2,47.1,30.05,ESE,120,1.0,2.0,89,0.00,,OVC026,0.00,VWS V14.01,2013-06-12 11:29:00,
2013-06-12 04:31:00,50.2,47.1,30.05,ESE,120,2.0,2.0,89,0.00,,OVC026,0.00,VWS V14.01,2013-06-12 11:31:00,
2013-06-12 04:32:00,50.2,47.1,30.05,ESE,120,1.0,2.0,89,0.00,,OVC026,0.00,VWS V14.01,2013-06-12 11:32:00,
2013-06-12 04:33:00,50.2,47.1,30.05,ESE,120,2.0,2.0,89,0.00,,OVC026,0.00,VWS V14.01,2013-06-12 11:33:00,
2013-06-12 04:34:00,50.2,47.1,30.05,ESE,120,1.0,2.0,89,0.00,,OVC026,0.00,VWS V14.01,2013-06-12 11:34:00,
2013-06-12 04:36:00,50.2,47.1,30.05,ESE,120,0.0,2.0,89,0.00,,OVC026,0.00,VWS V14.01,2013-06-12 11:36:00,
2013-06-12 04:37:00,50.2,47.1,30.05,ESE,120,0.0,0.0,89,0.00,,OVC026,0.00,VWS V14.01,2013-06-12 11:37:00,
2013-06-12 04:41:00,50.2,47.1,30.05,ESE,120,0.0,0.0,89,0.00,,OVC026,0.00,VWS V14.01,2013-06-12 11:41:00,
2013-06-12 04:42:00,50.2,47.1,30.05,ESE,120,0.0,0.0,89,0.00,,OVC026,0.00,VWS V14.01,2013-06-12 11:42:00,
2013-06-12 04:45:00,50.2,47.1,30.05,ESE,120,0.0,0.0,89,0.00,,OVC026,0.00,VWS V14.01,2013-06-12 11:45:00,
2013-06-12 04:46:00,50.2,47.1,30.05,ESE,120,0.0,0.0,89,0.00,,OVC026,0.00,VWS V14.01,2013-06-12 11:46:00,
2013-06-12 04:50:00,50.2,47.1,30.05,ESE,120,0.0,0.0,89,0.00,,OVC026,0.00,VWS V14.01,2013-06-12 11:50:00,
2013-06-12 04:51:00,50.2,47.1,30.05,ESE,120,0.0,0.0,89,0.00,,OVC026,0.00,VWS V14.01,2013-06-12 11:51:00,
2013-06-12 04:52:00,50.2,47.1,30.05,ESE,120,0.0,0.0,89,0.00,,OVC026,0.00,VWS V14.01,2013-06-12 11:52:00,
2013-06-12 04:56:00,50.2,47.1,30.05,ESE,120,0.0,0.0,89,0.00,,OVC026,0.00,VWS V14.01,2013-06-12 11:56:00,
2013-06-12 04:57:00,50.2,47.1,30.05,ESE,120,0.0,0.0,89,0.00,,OVC026,0.00,VWS V14.01,2013-06-12 11:57:00,
2013-06-12 04:58:00,50.2,47.1,30.05,ESE,120,0.0,0.0,89,0.00,,OVC026,0.00,VWS V14.01,2013-06-12 11:58:00,
2013-06-12 05:00:00,50.2,47.1,30.05,ESE,120,0.0,0.0,89,0.00,,OVC026,0.00,VWS V14.01,2013-06-12 12:00:00,
2013-06-12 05:02:00,50.2,47.1,30.05,ESE,120,0.0,0.0,89,0.00,,OVC026,0.00,VWS V14.01,2013-06-12 12:02:00,
2013-06-12 05:03:00,50.2,47.1,30.05,ESE,120,0.0,0.0,89,0.00,,OVC026,0.00,VWS V14.01,2013-06-12 12:03:00,
2013-06-12 05:06:00,50.1,47.3,30.05,ESE,116,0.0,0.0,90,0.00,,OVC026,0.00,VWS V14.01,2013-06-12 12:06:00,
2013-06-12 05:07:00,50.1,47.3,30.05,East,95,0.0,0.0,90,0.00,,OVC026,0.00,VWS V14.01,2013-06-12 12:07:00,
2013-06-12 05:08:00,50.1,47.3,30.05,East,95,0.0,0.0,90,0.00,,OVC026,0.00,VWS V14.01,2013-06-12 12:08:00,
2013-06-12 05:09:00,50.1,47.3,30.05,East,95,0.0,0.0,90,0.00,,OVC026,0.00,VWS V14.01,2013-06-12 12:09:00,
2013-06-12 05:11:00,50.1,47.3,30.05,East,95,0.0,0.0,90,0.00,,OVC026,0.00,VWS V14.01,2013-06-12 12:11:00,
2013-06-12 05:12:00,50.1,47.3,30.05,East,95,0.0,0.0,90,0.00,,OVC026,0.00,VWS V14.01,2013-06-12 12:12:00,
2013-06-12 05:14:00,50.1,47.3,30.05,East,95,0.0,0.0,90,0.00,,OVC026,0.00,VWS V14.01,2013-06-12 12:14:00,
2013-06-12 05:16:00,50.1,47.3,30.05,East,95,0.0,2.0,90,0.00,,OVC026,0.00,VWS V14.01,2013-06-12 12:16:00,
2013-06-12 05:18:00,50.1,47.3,30.05,East,95,0.0,0.0,90,0.00,,OVC026,0.00,VWS V14.01,2013-06-12 12:18:00,
2013-06-12 05:19:00,50.1,47.3,30.05,East,95,0.0,0.0,90,0.00,,OVC026,0.00,VWS V14.01,2013-06-12 12:19:00,
2013-06-12 05:23:00,50.1,47.3,30.05,East,95,0.0,0.0,90,0.00,,OVC026,0.00,VWS V14.01,2013-06-12 12:23:00,
2013-06-12 05:24:00,50.1,47.3,30.05,East,95,0.0,0.0,90,0.00,,OVC026,0.00,VWS V14.01,2013-06-12 12:24:00,
2013-06-12 05:25:00,50.1,47.3,30.05,East,95,0.0,0.0,90,0.00,,OVC026,0.00,VWS V14.01,2013-06-12 12:25:00,
2013-06-12 05:28:00,50.1,47.3,30.05,East,95,0.0,0.0,90,0.00,,OVC026,0.00,VWS V14.01,2013-06-12 12:28:00,
2013-06-12 05:31:00,50.1,47.3,30.05,East,95,0.0,0.0,90,0.00,,OVC026,0.00,VWS V14.01,2013-06-12 12:31:00,
2013-06-12 05:33:00,50.1,47.3,30.05,East,95,0.0,0.0,90,0.00,,OVC026,0.00,VWS V14.01,2013-06-12 12:33:00,
2013-06-12 05:35:00,50.1,47.3,30.05,East,95,0.0,0.0,90,0.00,,OVC026,0.00,VWS V14.01,2013-06-12 12:35:00,
2013-06-12 05:36:00,50.1,47.3,30.05,East,95,0.0,0.0,90,0.00,,OVC026,0.00,VWS V14.01,2013-06-12 12:36:00,
2013-06-12 05:38:00,50.1,47.3,30.05,East,95,0.0,2.0,90,0.00,,OVC026,0.00,VWS V14.01,2013-06-12 12:38:00,
2013-06-12 05:39:00,50.1,47.3,30.05,East,95,0.0,2.0,90,0.00,,OVC026,0.00,VWS V14.01,2013-06-12 12:39:00,
2013-06-12 05:41:00,50.1,47.3,30.05,East,95,0.0,2.0,90,0.00,,OVC026,0.00,VWS V14.01,2013-06-12 12:41:00,
2013-06-12 05:44:00,50.1,47.3,30.05,East,95,0.0,0.0,90,0.00,,OVC026,0.00,VWS V14.01,2013-06-12 12:44:00,
2013-06-12 05:46:00,50.1,47.3,30.05,East,95,0.0,0.0,90,0.00,,OVC026,0.00,VWS V14.01,2013-06-12 12:46:00,
2013-06-12 05:47:00,50.1,47.3,30.05,East,95,0.0,0.0,90,0.00,,OVC026,0.00,VWS V14.01,2013-06-12 12:47:00,
2013-06-12 05:49:00,50.1,47.3,30.05,East,95,0.0,0.0,90,0.00,,OVC026,0.00,VWS V14.01,2013-06-12 12:49:00,
2013-06-12 05:51:00,50.1,47.3,30.05,East,95,2.0,3.0,90,0.00,,OVC026,0.00,VWS V14.01,2013-06-12 12:51:00,
2013-06-12 05:52:00,50.1,47.3,30.05,East,95,0.0,2.0,90,0.00,,OVC026,0.00,VWS V14.01,2013-06-12 12:52:00,
2013-06-12 05:54:00,50.1,47.3,30.05,East,95,0.0,2.0,90,0.00,,OVC026,0.00,VWS V14.01,2013-06-12 12:54:00,
2013-06-12 05:55:00,50.1,47.3,30.05,East,95,0.0,2.0,90,0.00,,OVC026,0.00,VWS V14.01,2013-06-12 12:55:00,
2013-06-12 05:58:00,50.1,47.3,30.05,East,95,0.0,0.0,90,0.00,,OVC026,0.00,VWS V14.01,2013-06-12 12:58:00,
2013-06-12 06:00:00,50.1,47.3,30.05,East,95,0.0,0.0,90,0.00,,OVC026,0.00,VWS V14.01,2013-06-12 13:00:00,
2013-06-12 06:02:00,50.1,47.3,30.06,East,95,0.0,0.0,90,0.00,,OVC026,0.00,VWS V14.01,2013-06-12 13:02:00,
2013-06-12 06:04:00,50.1,47.3,30.06,East,95,0.0,0.0,90,0.00,,OVC026,0.00,VWS V14.01,2013-06-12 13:04:00,
2013-06-12 06:08:00,50.2,47.4,30.06,East,95,0.0,0.0,90,0.00,,OVC026,0.00,VWS V14.01,2013-06-12 13:08:00,
2013-06-12 06:09:00,50.2,47.4,30.06,East,95,0.0,0.0,90,0.00,,OVC026,0.00,VWS V14.01,2013-06-12 13:09:00,
2013-06-12 06:10:00,50.2,47.4,30.06,East,95,0.0,0.0,90,0.00,,OVC026,0.00,VWS V14.01,2013-06-12 13:10:00,
2013-06-12 06:11:00,50.2,47.4,30.06,East,95,0.0,0.0,90,0.00,,OVC026,0.00,VWS V14.01,2013-06-12 13:11:00,
2013-06-12 06:12:00,50.2,47.4,30.06,East,95,0.0,0.0,90,0.00,,OVC026,0.00,VWS V14.01,2013-06-12 13:12:00,
2013-06-12 06:15:00,50.2,47.4,30.06,East,95,0.0,0.0,90,0.00,,OVC026,0.00,VWS V14.01,2013-06-12 13:15:00,
2013-06-12 06:16:00,50.2,47.4,30.06,East,95,0.0,0.0,90,0.00,,OVC026,0.00,VWS V14.01,2013-06-12 13:16:00,
2013-06-12 06:17:00,50.4,47.6,30.06,East,95,0.0,0.0,90,0.00,,OVC026,0.00,VWS V14.01,2013-06-12 13:17:00,
2013-06-12 06:18:00,50.4,47.6,30.06,East,95,0.0,0.0,90,0.00,,OVC026,0.00,VWS V14.01,2013-06-12 13:18:00,
2013-06-12 06:21:00,50.5,48.0,30.06,East,95,0.0,0.0,91,0.00,,OVC026,0.00,VWS V14.01,2013-06-12 13:21:00,
2013-06-12 06:22:00,50.5,48.0,30.06,East,95,0.0,0.0,91,0.00,,OVC026,0.00,VWS V14.01,2013-06-12 13:22:00,
2013-06-12 06:24:00,50.7,48.2,30.06,East,95,0.0,0.0,91,0.00,,OVC026,0.00,VWS V14.01,2013-06-12 13:24:00,
2013-06-12 06:25:00,50.7,48.2,30.06,East,95,0.0,0.0,91,0.00,,OVC026,0.00,VWS V14.01,2013-06-12 13:25:00,
2013-06-12 06:26:00,50.7,48.2,30.06,East,95,0.0,0.0,91,0.00,,OVC026,0.00,VWS V14.01,2013-06-12 13:26:00,
2013-06-12 06:28:00,50.7,48.2,30.06,East,95,0.0,0.0,91,0.00,,OVC026,0.00,VWS V14.01,2013-06-12 13:28:00,
2013-06-12 06:31:00,50.7,48.2,30.06,East,95,0.0,0.0,91,0.00,,OVC026,0.00,VWS V14.01,2013-06-12 13:31:00,
2013-06-12 06:32:00,50.7,47.9,30.06,East,95,0.0,0.0,90,0.00,,OVC026,0.00,VWS V14.01,2013-06-12 13:32:00,
2013-06-12 06:33:00,50.7,47.9,30.06,East,95,0.0,1.0,90,0.00,,OVC026,0.00,VWS V14.01,2013-06-12 13:33:00,
2013-06-12 06:34:00,50.7,47.9,30.06,East,95,0.0,1.0,90,0.00,,OVC026,0.00,VWS V14.01,2013-06-12 13:34:00,
2013-06-12 06:38:00,50.8,48.0,30.06,East,95,0.0,2.0,90,0.00,,OVC026,0.00,VWS V14.01,2013-06-12 13:38:00,
2013-06-12 06:39:00,50.8,48.0,30.06,East,95,0.0,2.0,90,0.00,,OVC026,0.00,VWS V14.01,2013-06-12 13:39:00,
2013-06-12 06:42:00,51.0,48.2,30.06,East,95,0.0,0.0,90,0.00,,OVC026,0.00,VWS V14.01,2013-06-12 13:42:00,
2013-06-12 06:43:00,51.0,48.2,30.06,East,95,0.0,0.0,90,0.00,,OVC026,0.00,VWS V14.01,2013-06-12 13:43:00,
2013-06-12 06:45:00,51.0,48.2,30.06,ESE,113,0.0,2.0,90,0.00,,OVC026,0.00,VWS V14.01,2013-06-12 13:45:00,
2013-06-12 06:46:00,51.0,48.2,30.05,ESE,113,0.0,2.0,90,0.00,,OVC026,0.00,VWS V14.01,2013-06-12 13:46:00,
2013-06-12 06:50:00,51.1,48.3,30.05,SSW,199,3.0,3.0,90,0.00,,OVC026,0.00,VWS V14.01,2013-06-12 13:50:00,
2013-06-12 06:51:00,51.3,48.5,30.05,SSW,199,0.0,3.0,90,0.00,,OVC026,0.00,VWS V14.01,2013-06-12 13:51:00,
2013-06-12 06:52:00,51.4,48.3,30.05,SSW,203,0.0,2.0,89,0.00,,OVC026,0.00,VWS V14.01,2013-06-12 13:52:00,
2013-06-12 06:55:00,51.6,48.5,30.05,SSE,148,0.0,3.0,89,0.00,,OVC026,0.00,VWS V14.01,2013-06-12 13:55:00,
2013-06-12 06:56:00,51.7,48.6,30.05,SSE,148,0.0,3.0,89,0.00,,OVC026,0.00,VWS V14.01,2013-06-12 13:56:00,
2013-06-12 06:57:00,51.7,48.3,30.05,SSE,148,0.0,0.0,88,0.00,,OVC026,0.00,VWS V14.01,2013-06-12 13:57:00,
2013-06-12 07:00:00,52.0,48.6,30.05,SSE,148,1.0,3.0,88,0.00,,OVC026,0.00,VWS V14.01,2013-06-12 14:00:00,
2013-06-12 07:01:00,52.0,48.6,30.05,SSE,148,0.0,3.0,88,0.00,,OVC060,0.00,VWS V14.01,2013-06-12 14:01:00,
2013-06-12 07:02:00,52.2,48.5,30.05,SSE,148,0.0,3.0,87,0.00,,OVC060,0.00,VWS V14.01,2013-06-12 14:02:00,
2013-06-12 07:03:00,52.2,48.5,30.05,SW,216,0.0,3.0,87,0.00,,OVC060,0.00,VWS V14.01,2013-06-12 14:03:00,
2013-06-12 07:05:00,52.3,48.2,30.05,South,174,0.0,3.0,86,0.00,,OVC060,0.00,VWS V14.01,2013-06-12 14:05:00,
2013-06-12 07:06:00,52.5,48.4,30.05,South,171,0.0,3.0,86,0.00,,OVC060,0.00,VWS V14.01,2013-06-12 14:06:00,
2013-06-12 07:07:00,52.6,48.2,30.05,South,171,0.0,0.0,85,0.00,,OVC060,0.00,VWS V14.01,2013-06-12 14:07:00,
2013-06-12 07:09:00,52.9,48.5,30.05,South,171,0.0,0.0,85,0.00,,OVC060,0.00,VWS V14.01,2013-06-12 14:09:00,
2013-06-12 07:10:00,53.1,48.4,30.05,South,174,0.0,0.0,84,0.00,,OVC060,0.00,VWS V14.01,2013-06-12 14:10:00,
2013-06-12 07:11:00,53.2,48.5,30.05,SW,227,1.0,2.0,84,0.00,,OVC060,0.00,VWS V14.01,2013-06-12 14:11:00,
2013-06-12 07:14:00,53.5,48.2,30.05,WSW,237,5.0,7.0,82,0.00,,OVC060,0.00,VWS V14.01,2013-06-12 14:14:00,
2013-06-12 07:15:00,53.5,48.2,30.05,South,171,0.0,7.0,82,0.00,,OVC060,0.00,VWS V14.01,2013-06-12 14:15:00,
2013-06-12 07:16:00,53.6,48.2,30.05,SSE,165,0.0,0.0,82,0.00,,OVC060,0.00,VWS V14.01,2013-06-12 14:16:00,
2013-06-12 07:19:00,53.9,47.9,30.05,SSW,192,0.0,6.0,80,0.00,,OVC060,0.00,VWS V14.01,2013-06-12 14:19:00,
2013-06-12 07:20:00,54.1,48.1,30.05,SSW,192,0.0,6.0,80,0.00,,OVC060,0.00,VWS V14.01,2013-06-12 14:20:00,
2013-06-12 07:21:00,54.1,47.7,30.05,SSW,196,6.0,6.0,79,0.00,,OVC060,0.00,VWS V14.01,2013-06-12 14:21:00,
2013-06-12 07:24:00,54.2,47.5,30.05,SW,222,3.0,6.0,78,0.00,,OVC060,0.00,VWS V14.01,2013-06-12 14:24:00,
2013-06-12 07:25:00,54.2,47.5,30.05,SSW,209,3.0,6.0,78,0.00,,OVC060,0.00,VWS V14.01,2013-06-12 14:25:00,
2013-06-12 07:26:00,54.2,47.2,30.05,SSW,205,0.0,6.0,77,0.00,,OVC060,0.00,VWS V14.01,2013-06-12 14:26:00,
2013-06-12 07:30:00,54.5,47.1,30.05,SSW,213,0.0,4.0,76,0.00,,OVC060,0.00,VWS V14.01,2013-06-12 14:30:00,
2013-06-12 07:31:00,54.7,47.3,30.05,SSW,213,0.0,4.0,76,0.00,,OVC060,0.00,VWS V14.01,2013-06-12 14:31:00,
2013-06-12 07:33:00,54.7,47.3,30.05,SW,217,0.0,2.0,76,0.00,,OVC060,0.00,VWS V14.01,2013-06-12 14:33:00,
2013-06-12 07:34:00,54.8,47.4,30.05,SW,233,0.0,4.0,76,0.00,,OVC060,0.00,VWS V14.01,2013-06-12 14:34:00,
2013-06-12 07:35:00,54.8,47.4,30.05,WSW,258,0.0,4.0,76,0.00,,OVC060,0.00,VWS V14.01,2013-06-12 14:35:00,
2013-06-12 07:39:00,54.8,47.0,30.05,WSW,251,3.0,3.0,75,0.00,,OVC060,0.00,VWS V14.01,2013-06-12 14:39:00,
2013-06-12 07:41:00,55.0,47.2,30.05,SSE,168,0.0,3.0,75,0.00,,OVC060,0.00,VWS V14.01,2013-06-12 14:41:00,
2013-06-12 07:44:00,55.0,47.6,30.05,SSW,198,0.0,3.0,76,0.00,,OVC060,0.00,VWS V14.01,2013-06-12 14:44:00,
2013-06-12 07:45:00,55.0,47.2,30.05,SSW,199,1.0,3.0,75,0.00,,OVC060,0.00,VWS V14.01,2013-06-12 14:45:00,
2013-06-12 07:46:00,55.0,47.2,30.05,SSW,200,0.0,3.0,75,0.00,,OVC060,0.00,VWS V14.01,2013-06-12 14:46:00,
2013-06-12 07:47:00,54.8,47.0,30.05,SSW,205,2.0,3.0,75,0.00,,OVC060,0.00,VWS V14.01,2013-06-12 14:47:00,
2013-06-12 07:51:00,54.8,47.0,30.05,SSW,205,0.0,0.0,75,0.00,,OVC060,0.00,VWS V14.01,2013-06-12 14:51:00,
2013-06-12 07:52:00,54.8,47.4,30.05,SSE,157,1.0,3.0,76,0.00,,OVC060,0.00,VWS V14.01,2013-06-12 14:52:00,
2013-06-12 07:54:00,55.0,47.2,30.05,West,263,1.0,3.0,75,0.00,,OVC060,0.00,VWS V14.01,2013-06-12 14:54:00,
2013-06-12 07:55:00,55.0,47.2,30.05,WSW,257,0.0,3.0,75,0.00,,OVC060,0.00,VWS V14.01,2013-06-12 14:55:00,
2013-06-12 07:56:00,55.0,46.9,30.05,SSE,154,0.0,0.0,74,0.00,,OVC060,0.00,VWS V14.01,2013-06-12 14:56:00,
2013-06-12 07:59:00,55.3,47.2,30.05,South,182,2.0,3.0,74,0.00,,OVC060,0.00,VWS V14.01,2013-06-12 14:59:00,
2013-06-12 08:00:00,55.3,47.2,30.05,South,181,1.0,3.0,74,0.00,,OVC060,0.00,VWS V14.01,2013-06-12 15:00:00,
2013-06-12 08:01:00,55.3,47.2,30.05,South,181,0.0,0.0,74,0.00,,OVC080,0.00,VWS V14.01,2013-06-12 15:01:00,
2013-06-12 08:02:00,55.4,47.3,30.05,WSW,247,2.0,6.0,74,0.00,,OVC080,0.00,VWS V14.01,2013-06-12 15:02:00,
2013-06-12 08:05:00,55.7,47.9,30.05,WSW,247,0.0,6.0,75,0.00,,OVC080,0.00,VWS V14.01,2013-06-12 15:05:00,
2013-06-12 08:06:00,55.9,48.1,30.05,WSW,247,0.0,6.0,75,0.00,,OVC080,0.00,VWS V14.01,2013-06-12 15:06:00,
2013-06-12 08:07:00,55.9,47.0,30.05,SW,224,2.0,5.0,72,0.00,,OVC080,0.00,VWS V14.01,2013-06-12 15:07:00,
2013-06-12 08:08:00,56.0,47.5,30.05,SW,224,2.0,5.0,73,0.00,,OVC080,0.00,VWS V14.01,2013-06-12 15:08:00,
2013-06-12 08:09:00,56.0,47.5,30.05,SSW,198,2.0,6.0,73,0.00,,OVC080,0.00,VWS V14.01,2013-06-12 15:09:00,
2013-06-12 08:11:00,56.2,47.7,30.05,SSW,200,0.0,6.0,73,0.00,,OVC080,0.00,VWS V14.01,2013-06-12 15:11:00,
2013-06-12 08:13:00,56.5,47.6,30.05,SW,217,2.0,3.0,72,0.00,,OVC080,0.00,VWS V14.01,2013-06-12 15:13:00,
2013-06-12 08:15:00,56.6,47.3,30.05,SW,217,0.0,3.0,71,0.00,,OVC080,0.00,VWS V14.01,2013-06-12 15:15:00,
2013-06-12 08:16:00,56.6,47.3,30.05,SW,217,0.0,3.0,71,0.00,,OVC080,0.00,VWS V14.01,2013-06-12 15:16:00,
2013-06-12 08:18:00,56.7,47.0,30.05,WSW,243,5.0,6.0,70,0.00,,OVC080,0.00,VWS V14.01,2013-06-12 15:18:00,
2013-06-12 08:20:00,56.7,46.7,30.05,South,184,0.0,6.0,69,0.00,,OVC080,0.00,VWS V14.01,2013-06-12 15:20:00,
2013-06-12 08:22:00,56.7,46.7,30.05,SW,216,2.0,2.0,69,0.00,,OVC080,0.00,VWS V14.01,2013-06-12 15:22:00,
2013-06-12 08:23:00,56.7,46.7,30.05,SW,216,0.0,2.0,69,0.00,,OVC080,0.00,VWS V14.01,2013-06-12 15:23:00,
2013-06-12 08:24:00,56.7,46.7,30.05,SE,133,2.0,7.0,69,0.00,,OVC080,0.00,VWS V14.01,2013-06-12 15:24:00,
2013-06-12 08:26:00,56.6,46.6,30.05,SSE,152,1.0,7.0,69,0.00,,OVC080,0.00,VWS V14.01,2013-06-12 15:26:00,
2013-06-12 08:27:00,56.6,46.9,30.05,SW,223,2.0,5.0,70,0.00,,OVC080,0.00,VWS V14.01,2013-06-12 15:27:00,
2013-06-12 08:28:00,56.6,46.9,30.05,East,80,2.0,5.0,70,0.00,,OVC080,0.00,VWS V14.01,2013-06-12 15:28:00,
2013-06-12 08:31:00,56.7,46.3,30.05,SSE,152,0.0,5.0,68,0.00,,OVC080,0.00,VWS V14.01,2013-06-12 15:31:00,
2013-06-12 08:33:00,57.0,46.6,30.05,SE,133,0.0,4.0,68,0.00,,OVC080,0.00,VWS V14.01,2013-06-12 15:33:00,
2013-06-12 08:36:00,57.2,46.8,30.05,SE,134,0.0,4.0,68,0.00,,OVC080,0.00,VWS V14.01,2013-06-12 15:36:00,
2013-06-12 08:41:00,57.5,46.6,30.05,SSW,199,2.0,8.0,67,0.00,,OVC080,0.00,VWS V14.01,2013-06-12 15:41:00,
2013-06-12 08:43:00,57.3,46.0,30.05,SW,226,5.0,7.0,66,0.00,,OVC080,0.00,VWS V14.01,2013-06-12 15:43:00,
2013-06-12 08:45:00,57.3,46.5,30.05,South,169,2.0,7.0,67,0.00,,OVC080,0.00,VWS V14.01,2013-06-12 15:45:00,
2013-06-12 08:47:00,57.5,47.0,30.05,South,169,0.0,0.0,68,0.00,,OVC080,0.00,VWS V14.01,2013-06-12 15:47:00,
2013-06-12 08:48:00,57.5,47.0,30.05,SSW,193,3.0,8.0,68,0.00,,OVC080,0.00,VWS V14.01,2013-06-12 15:48:00,
2013-06-12 08:52:00,57.2,46.4,30.05,SW,220,0.0,3.0,67,0.00,,OVC080,0.00,VWS V14.01,2013-06-12 15:52:00,
2013-06-12 08:53:00,57.0,46.6,30.05,SW,220,0.0,3.0,68,0.00,,OVC080,0.00,VWS V14.01,2013-06-12 15:53:00,
2013-06-12 08:54:00,57.0,46.6,30.05,SW,229,0.0,3.0,68,0.00,,OVC080,0.00,VWS V14.01,2013-06-12 15:54:00,
2013-06-12 08:57:00,56.9,45.7,30.05,SW,229,2.0,5.0,66,0.00,,OVC080,0.00,VWS V14.01,2013-06-12 15:57:00,
2013-06-12 08:59:00,56.7,45.5,30.05,SW,229,2.0,5.0,66,0.00,,OVC080,0.00,VWS V14.01,2013-06-12 15:59:00,
2013-06-12 09:01:00,56.6,45.8,30.06,SW,215,6.0,7.0,67,0.00,,OVC080,0.00,VWS V14.01,2013-06-12 16:01:00,
2013-06-12 09:02:00,56.5,45.7,30.06,SW,220,4.0,6.0,67,0.00,,OVC080,0.00,VWS V14.01,2013-06-12 16:02:00,
2013-06-12 09:05:00,56.2,46.2,30.06,SW,226,3.0,6.0,69,0.00,,OVC080,0.00,VWS V14.01,2013-06-12 16:05:00,
2013-06-12 09:08:00,56.0,45.2,30.06,WSW,241,0.0,6.0,67,0.00,,OVC080,0.00,VWS V14.01,2013-06-12 16:08:00,
2013-06-12 09:09:00,56.0,45.2,30.06,WSW,241,0.0,6.0,67,0.00,,OVC080,0.00,VWS V14.01,2013-06-12 16:09:00,
2013-06-12 09:10:00,56.0,45.2,30.06,WSW,241,0.0,6.0,67,0.00,,OVC080,0.00,VWS V14.01,2013-06-12 16:10:00,
2013-06-12 09:12:00,56.2,45.8,30.06,WSW,241,0.0,0.0,68,0.00,,OVC080,0.00,VWS V14.01,2013-06-12 16:12:00,
2013-06-12 09:13:00,56.3,45.9,30.06,WSW,241,2.0,3.0,68,0.00,,OVC080,0.00,VWS V14.01,2013-06-12 16:13:00,
2013-06-12 09:15:00,56.2,45.4,30.06,WSW,243,0.0,3.0,67,0.00,,OVC080,0.00,VWS V14.01,2013-06-12 16:15:00,
2013-06-12 09:16:00,56.2,45.4,30.06,WSW,243,0.0,1.0,67,0.00,,OVC080,0.00,VWS V14.01,2013-06-12 16:16:00,
2013-06-12 09:19:00,56.3,45.9,30.06,WSW,243,3.0,3.0,68,0.00,,OVC080,0.00,VWS V14.01,2013-06-12 16:19:00,
2013-06-12 09:21:00,56.3,45.9,30.06,SW,217,0.0,5.0,68,0.00,,OVC080,0.00,VWS V14.01,2013-06-12 16:21:00,
2013-06-12 09:25:00,56.2,45.4,30.06,SW,217,2.0,3.0,67,0.00,,OVC080,0.00,VWS V14.01,2013-06-12 16:25:00,
2013-06-12 09:26:00,56.2,45.4,30.06,SW,217,2.0,4.0,67,0.00,,OVC080,0.00,VWS V14.01,2013-06-12 16:26:00,
2013-06-12 09:28:00,56.2,45.4,30.06,SW,217,0.0,2.0,67,0.00,,OVC080,0.00,VWS V14.01,2013-06-12 16:28:00,
2013-06-12 09:30:00,56.3,45.9,30.06,SW,217,0.0,2.0,68,0.00,,OVC080,0.00,VWS V14.01,2013-06-12 16:30:00,
2013-06-12 09:31:00,56.5,45.7,30.06,SW,217,0.0,0.0,67,0.00,,OVC080,0.00,VWS V14.01,2013-06-12 16:31:00,
2013-06-12 09:33:00,56.5,46.1,30.06,SW,217,0.0,0.0,68,0.00,,OVC080,0.00,VWS V14.01,2013-06-12 16:33:00,
2013-06-12 09:34:00,56.7,46.7,30.06,SW,217,0.0,0.0,69,0.00,,OVC080,0.00,VWS V14.01,2013-06-12 16:34:00,
2013-06-12 09:36:00,56.9,47.2,30.06,SW,217,0.0,1.0,70,0.00,,OVC080,0.00,VWS V14.01,2013-06-12 16:36:00,
2013-06-12 09:41:00,57.0,46.6,30.06,SW,217,0.0,2.0,68,0.00,,OVC080,0.00,VWS V14.01,2013-06-12 16:41:00,
2013-06-12 09:45:00,57.0,46.2,30.06,SW,217,0.0,0.0,67,0.00,,OVC080,0.00,VWS V14.01,2013-06-12 16:45:00,
2013-06-12 09:46:00,57.0,46.6,30.06,SW,217,0.0,0.0,68,0.00,,OVC080,0.00,VWS V14.01,2013-06-12 16:46:00,
2013-06-12 09:47:00,57.0,46.2,30.06,SW,217,0.0,0.0,67,0.00,,OVC080,0.00,VWS V14.01,2013-06-12 16:47:00,
2013-06-12 09:48:00,57.0,46.2,30.06,SW,217,0.0,1.0,67,0.00,,OVC080,0.00,VWS V14.01,2013-06-12 16:48:00,
2013-06-12 09:49:00,57.0,46.2,30.06,SW,217,2.0,2.0,67,0.00,,OVC080,0.00,VWS V14.01,2013-06-12 16:49:00,
2013-06-12 09:51:00,56.9,45.7,30.06,SW,217,0.0,3.0,66,0.00,,OVC080,0.00,VWS V14.01,2013-06-12 16:51:00,
2013-06-12 09:52:00,56.9,45.7,30.06,SW,217,0.0,2.0,66,0.00,,OVC080,0.00,VWS V14.01,2013-06-12 16:52:00,
2013-06-12 09:54:00,56.7,46.3,30.06,SW,217,0.0,2.0,68,0.00,,OVC080,0.00,VWS V14.01,2013-06-12 16:54:00,
2013-06-12 09:55:00,56.7,46.3,30.06,SW,217,0.0,2.0,68,0.00,,OVC080,0.00,VWS V14.01,2013-06-12 16:55:00,
2013-06-12 09:57:00,56.9,46.8,30.06,SW,217,1.0,1.0,69,0.00,,OVC080,0.00,VWS V14.01,2013-06-12 16:57:00,
2013-06-12 09:59:00,56.7,46.3,30.06,SW,217,1.0,2.0,68,0.00,,OVC080,0.00,VWS V14.01,2013-06-12 16:59:00,
2013-06-12 10:00:00,56.7,46.3,30.06,SW,217,2.0,2.0,68,0.00,,BKN080,0.00,VWS V14.01,2013-06-12 17:00:00,
2013-06-12 10:04:00,56.6,46.2,30.06,SW,217,2.0,2.0,68,0.00,,BKN080,0.00,VWS V14.01,2013-06-12 17:04:00,
2013-06-12 10:07:00,56.5,46.5,30.06,SW,217,0.0,1.0,69,0.00,,BKN080,0.00,VWS V14.01,2013-06-12 17:07:00,
2013-06-12 10:10:00,56.6,46.6,30.06,SW,217,0.0,1.0,69,0.00,,BKN080,0.00,VWS V14.01,2013-06-12 17:10:00,
2013-06-12 10:11:00,56.6,46.6,30.06,SW,217,0.0,1.0,69,0.00,,BKN080,0.00,VWS V14.01,2013-06-12 17:11:00,
2013-06-12 10:14:00,56.6,46.9,30.06,SW,217,3.0,3.0,70,0.00,,BKN080,0.00,VWS V14.01,2013-06-12 17:14:00,
2013-06-12 10:16:00,56.5,46.1,30.06,SW,217,0.0,3.0,68,0.00,,BKN080,0.00,VWS V14.01,2013-06-12 17:16:00,
2013-06-12 10:17:00,56.5,46.1,30.06,SW,217,0.0,1.0,68,0.00,,BKN080,0.00,VWS V14.01,2013-06-12 17:17:00,
2013-06-12 10:18:00,56.5,45.7,30.06,SW,217,1.0,3.0,67,0.00,,BKN080,0.00,VWS V14.01,2013-06-12 17:18:00,
2013-06-12 10:22:00,56.5,45.7,30.06,SW,217,0.0,0.0,67,0.00,,BKN080,0.00,VWS V14.01,2013-06-12 17:22:00,
2013-06-12 10:23:00,56.5,45.7,30.06,SW,217,0.0,1.0,67,0.00,,BKN080,0.00,VWS V14.01,2013-06-12 17:23:00,
2013-06-12 10:24:00,56.5,45.7,30.06,SW,217,0.0,1.0,67,0.00,,BKN080,0.00,VWS V14.01,2013-06-12 17:24:00,
2013-06-12 10:25:00,56.5,45.7,30.06,SW,217,0.0,1.0,67,0.00,,BKN080,0.00,VWS V14.01,2013-06-12 17:25:00,
2013-06-12 10:26:00,56.5,45.7,30.06,SW,217,1.0,1.0,67,0.00,,BKN080,0.00,VWS V14.01,2013-06-12 17:26:00,
2013-06-12 10:29:00,56.6,45.8,30.06,SW,217,2.0,2.0,67,0.00,,BKN080,0.00,VWS V14.01,2013-06-12 17:29:00,
2013-06-12 19:57:00,56.7,45.5,30.06,SW,217,0.0,1.0,66,0.00,,BKN080,0.00,VWS V14.01,2013-06-13 02:57:00,
2013-06-12 19:59:00,58.0,49.8,30.06,SSE,158,0.0,0.0,74,0.00,,BKN080,0.04,VWS V14.01,2013-06-13 02:59:00,
2013-06-12 20:01:00,57.8,49.6,30.05,SSE,164,0.0,0.0,74,0.00,,SCT085,0.04,VWS V14.01,2013-06-13 03:01:00,
2013-06-12 20:04:00,57.8,50.7,30.05,SSE,164,0.0,0.0,77,0.00,,SCT085,0.04,VWS V14.01,2013-06-13 03:04:00,
2013-06-12 20:05:00,57.8,50.7,30.05,SSE,164,0.0,0.0,77,0.00,,SCT085,0.04,VWS V14.01,2013-06-13 03:05:00,
2013-06-12 20:06:00,57.6,50.8,30.05,SSE,164,2.0,3.0,78,0.00,,SCT085,0.04,VWS V14.01,2013-06-13 03:06:00,
2013-06-12 20:07:00,57.6,50.5,30.05,SSE,164,1.0,2.0,77,0.00,,SCT085,0.04,VWS V14.01,2013-06-13 03:07:00,
2013-06-12 20:10:00,57.5,50.4,30.05,SSE,165,1.0,2.0,77,0.00,,SCT085,0.04,VWS V14.01,2013-06-13 03:10:00,
2013-06-12 20:11:00,57.5,50.4,30.05,South,171,1.0,4.0,77,0.01,,SCT085,0.05,VWS V14.01,2013-06-13 03:11:00,
2013-06-12 20:17:00,56.7,50.3,30.06,SW,227,2.0,2.0,79,0.08,,SCT085,0.12,VWS V14.01,2013-06-13 03:17:00,
2013-06-12 20:19:00,56.6,50.8,30.06,SW,227,0.0,2.0,81,0.08,,SCT085,0.12,VWS V14.01,2013-06-13 03:19:00,
2013-06-12 20:20:00,56.5,50.8,30.06,SW,227,2.0,2.0,81,0.09,,SCT085,0.13,VWS V14.01,2013-06-13 03:20:00,
2013-06-12 20:21:00,56.3,50.5,30.06,SW,227,0.0,2.0,81,0.09,,SCT085,0.13,VWS V14.01,2013-06-13 03:21:00,
2013-06-12 20:22:00,56.3,50.9,30.06,SW,227,1.0,2.0,82,0.09,,SCT085,0.13,VWS V14.01,2013-06-13 03:22:00,
2013-06-12 20:25:00,56.0,50.9,30.06,SW,227,0.0,2.0,83,0.10,,SCT085,0.14,VWS V14.01,2013-06-13 03:25:00,
2013-06-12 20:26:00,55.9,50.8,30.06,SW,227,0.0,2.0,83,0.10,,SCT085,0.14,VWS V14.01,2013-06-13 03:26:00,
2013-06-12 20:27:00,55.9,51.1,30.06,SW,227,0.0,0.0,84,0.11,,SCT085,0.15,VWS V14.01,2013-06-13 03:27:00,
2013-06-12 20:29:00,55.6,50.8,30.06,SW,227,0.0,0.0,84,0.11,,SCT085,0.15,VWS V14.01,2013-06-13 03:29:00,
2013-06-12 20:30:00,55.6,51.2,30.06,SW,227,0.0,1.0,85,0.12,,SCT085,0.16,VWS V14.01,2013-06-13 03:30:00,
2013-06-12 20:31:00,55.4,51.0,30.06,SW,227,0.0,1.0,85,0.12,,SCT085,0.16,VWS V14.01,2013-06-13 03:31:00,
2013-06-12 20:33:00,55.3,50.9,30.06,SW,227,1.0,2.0,85,0.12,,SCT085,0.16,VWS V14.01,2013-06-13 03:33:00,
2013-06-12 20:36:00,55.0,50.6,30.06,SW,227,0.0,2.0,85,0.14,,SCT085,0.18,VWS V14.01,2013-06-13 03:36:00,
2013-06-12 20:38:00,54.8,50.7,30.06,SW,227,0.0,0.0,86,0.14,,SCT085,0.18,VWS V14.01,2013-06-13 03:38:00,
2013-06-12 20:39:00,54.7,50.6,30.06,SW,227,0.0,0.0,86,0.14,,SCT085,0.18,VWS V14.01,2013-06-13 03:39:00,
2013-06-12 20:41:00,54.5,50.4,30.06,SW,227,0.0,0.0,86,0.15,,SCT085,0.19,VWS V14.01,2013-06-13 03:41:00,
2013-06-12 20:43:00,54.4,50.3,30.06,SW,227,2.0,2.0,86,0.16,,SCT085,0.20,VWS V14.01,2013-06-13 03:43:00,
2013-06-12 20:44:00,54.2,50.1,30.06,SW,226,1.0,3.0,86,0.16,,SCT085,0.20,VWS V14.01,2013-06-13 03:44:00,
2013-06-12 20:46:00,54.1,50.0,30.06,SW,227,0.0,3.0,86,0.17,,SCT085,0.21,VWS V14.01,2013-06-13 03:46:00,
2013-06-12 20:47:00,53.9,49.8,30.06,SW,227,0.0,0.0,86,0.17,,SCT085,0.21,VWS V14.01,2013-06-13 03:47:00,
2013-06-12 20:49:00,53.8,50.0,30.06,SW,227,0.0,0.0,87,0.18,,SCT085,0.22,VWS V14.01,2013-06-13 03:49:00,
2013-06-12 20:53:00,53.6,49.8,30.06,SW,219,0.0,0.0,87,0.20,,SCT085,0.24,VWS V14.01,2013-06-13 03:53:00,
2013-06-12 20:55:00,53.5,50.0,30.06,SW,227,0.0,0.0,88,0.20,,SCT085,0.24,VWS V14.01,2013-06-13 03:55:00,
2013-06-12 20:56:00,53.5,50.0,30.06,SW,227,0.0,0.0,88,0.20,,SCT085,0.24,VWS V14.01,2013-06-13 03:56:00,
2013-06-12 20:57:00,53.5,50.0,30.06,SW,227,0.0,0.0,88,0.20,,SCT085,0.24,VWS V14.01,2013-06-13 03:57:00,
2013-06-12 20:58:00,53.3,49.8,30.06,SW,227,0.0,0.0,88,0.20,,SCT085,0.24,VWS V14.01,2013-06-13 03:58:00,
2013-06-12 21:00:00,53.3,49.8,30.06,SW,227,0.0,0.0,88,0.20,,SCT085,0.24,VWS V14.01,2013-06-13 04:00:00,
2013-06-12 21:01:00,53.3,49.8,30.07,SW,227,0.0,0.0,88,0.20,,OVC080,0.24,VWS V14.01,2013-06-13 04:01:00,
2013-06-12 21:02:00,53.2,49.7,30.07,SW,227,0.0,0.0,88,0.20,,OVC080,0.24,VWS V14.01,2013-06-13 04:02:00,
2013-06-12 21:03:00,53.2,49.7,30.07,SW,227,0.0,0.0,88,0.20,,OVC080,0.24,VWS V14.01,2013-06-13 04:03:00,
2013-06-12 21:05:00,53.1,49.7,30.07,SW,227,0.0,0.0,88,0.20,,OVC080,0.24,VWS V14.01,2013-06-13 04:05:00,
2013-06-12 21:08:00,52.9,49.5,30.07,SW,227,0.0,1.0,88,0.21,,OVC080,0.25,VWS V14.01,2013-06-13 04:08:00,
2013-06-12 21:10:00,52.8,49.7,30.07,SW,227,0.0,1.0,89,0.21,,OVC080,0.25,VWS V14.01,2013-06-13 04:10:00,
2013-06-12 21:11:00,52.8,49.7,30.07,SW,227,0.0,1.0,89,0.21,,OVC080,0.25,VWS V14.01,2013-06-13 04:11:00,
2013-06-12 21:15:00,52.6,49.5,30.07,SW,227,0.0,0.0,89,0.20,,OVC080,0.25,VWS V14.01,2013-06-13 04:15:00,
2013-06-12 21:16:00,52.6,49.5,30.07,SW,226,0.0,0.0,89,0.20,,OVC080,0.25,VWS V14.01,2013-06-13 04:16:00,
2013-06-12 21:18:00,52.5,49.7,30.07,SW,226,1.0,2.0,90,0.14,,OVC080,0.25,VWS V14.01,2013-06-13 04:18:00,
2013-06-12 21:20:00,52.5,49.7,30.07,SW,226,1.0,2.0,90,0.14,,OVC080,0.25,VWS V14.01,2013-06-13 04:20:00,
2013-06-12 21:21:00,52.3,49.5,30.07,SW,226,0.0,2.0,90,0.14,,OVC080,0.25,VWS V14.01,2013-06-13 04:21:00,
2013-06-12 21:23:00,52.3,49.5,30.07,SW,226,0.0,0.0,90,0.12,,OVC080,0.25,VWS V14.01,2013-06-13 04:23:00,
2013-06-12 21:25:00,52.2,49.4,30.07,SW,226,1.0,1.0,90,0.12,,OVC080,0.25,VWS V14.01,2013-06-13 04:25:00,
2013-06-12 21:26:00,52.2,49.4,30.07,SW,226,0.0,1.0,90,0.12,,OVC080,0.25,VWS V14.01,2013-06-13 04:26:00,
2013-06-12 21:29:00,52.0,49.5,30.07,SW,226,0.0,0.0,91,0.11,,OVC080,0.25,VWS V14.01,2013-06-13 04:29:00,
2013-06-12 21:30:00,52.0,49.5,30.07,SW,226,0.0,0.0,91,0.11,,OVC080,0.25,VWS V14.01,2013-06-13 04:30:00,
2013-06-12 21:31:00,51.9,49.4,30.07,SW,226,1.0,1.0,91,0.11,,OVC080,0.25,VWS V14.01,2013-06-13 04:31:00,
2013-06-12 21:34:00,51.7,49.2,30.07,SW,226,0.0,1.0,91,0.09,,OVC080,0.25,VWS V14.01,2013-06-13 04:34:00,
2013-06-12 21:36:00,51.7,49.2,30.07,SW,226,0.0,1.0,91,0.09,,OVC080,0.25,VWS V14.01,2013-06-13 04:36:00,
2013-06-12 21:37:00,51.7,49.2,30.07,SW,226,0.0,2.0,91,0.07,,OVC080,0.25,VWS V14.01,2013-06-13 04:37:00,
2013-06-12 21:38:00,51.7,49.2,30.07,SW,226,0.0,2.0,91,0.07,,OVC080,0.25,VWS V14.01,2013-06-13 04:38:00,
2013-06-12 21:41:00,51.6,49.1,30.07,SW,226,0.0,2.0,91,0.07,,OVC080,0.25,VWS V14.01,2013-06-13 04:41:00,
2013-06-12 21:43:00,51.6,49.4,30.07,SW,226,1.0,2.0,92,0.06,,OVC080,0.25,VWS V14.01,2013-06-13 04:43:00,
2013-06-12 21:44:00,51.6,49.4,30.07,SW,226,0.0,2.0,92,0.06,,OVC080,0.25,VWS V14.01,2013-06-13 04:44:00,
2013-06-12 21:46:00,51.4,49.2,30.08,SSE,148,1.0,2.0,92,0.06,,OVC080,0.25,VWS V14.01,2013-06-13 04:46:00,
2013-06-12 21:47:00,51.4,49.2,30.08,SSE,148,1.0,2.0,92,0.04,,OVC080,0.25,VWS V14.01,2013-06-13 04:47:00,
2013-06-12 21:51:00,51.4,49.2,30.08,SSE,148,0.0,0.0,92,0.02,,OVC080,0.25,VWS V14.01,2013-06-13 04:51:00,
2013-06-12 21:52:00,51.4,49.2,30.08,SSE,148,0.0,0.0,92,0.02,,OVC080,0.25,VWS V14.01,2013-06-13 04:52:00,
2013-06-12 21:53:00,51.3,49.1,30.08,SSE,148,0.0,0.0,92,0.02,,OVC080,0.25,VWS V14.01,2013-06-13 04:53:00,
2013-06-12 21:56:00,51.3,49.3,30.08,SSE,148,2.0,2.0,93,0.02,,OVC080,0.25,VWS V14.01,2013-06-13 04:56:00,
2013-06-12 21:59:00,51.3,49.3,30.08,SSE,147,1.0,3.0,93,0.01,,OVC080,0.25,VWS V14.01,2013-06-13 04:59:00,
2013-06-12 22:00:00,51.3,49.3,30.08,SSE,147,0.0,3.0,93,0.01,,OVC080,0.25,VWS V14.01,2013-06-13 05:00:00,
2013-06-12 22:04:00,51.3,49.3,30.08,SSE,147,1.0,3.0,93,0.01,,OVC070,0.25,VWS V14.01,2013-06-13 05:04:00,
2013-06-12 22:05:00,51.3,49.3,30.08,SSE,147,2.0,3.0,93,0.01,,OVC070,0.25,VWS V14.01,2013-06-13 05:05:00,
2013-06-12 22:06:00,51.3,49.3,30.08,SSE,147,1.0,3.0,93,0.01,,OVC070,0.25,VWS V14.01,2013-06-13 05:06:00,
2013-06-12 22:07:00,51.1,49.2,30.08,SSE,147,1.0,3.0,93,0.01,,OVC070,0.25,VWS V14.01,2013-06-13 05:07:00,
2013-06-12 22:09:00,51.1,49.2,30.08,SSE,147,1.0,3.0,93,0.01,,OVC070,0.25,VWS V14.01,2013-06-13 05:09:00,
2013-06-12 22:10:00,51.1,49.2,30.08,SSE,147,1.0,3.0,93,0.01,,OVC070,0.25,VWS V14.01,2013-06-13 05:10:00,
2013-06-12 22:11:00,51.1,49.2,30.08,SSE,147,0.0,3.0,93,0.01,,OVC070,0.25,VWS V14.01,2013-06-13 05:11:00,
2013-06-12 22:12:00,51.1,49.2,30.08,SE,140,1.0,1.0,93,0.00,,OVC070,0.25,VWS V14.01,2013-06-13 05:12:00,
2013-06-12 22:16:00,51.1,49.2,30.08,SSE,147,0.0,2.0,93,0.00,,OVC070,0.25,VWS V14.01,2013-06-13 05:16:00,
2013-06-12 22:17:00,51.1,49.2,30.08,SSE,147,1.0,1.0,93,0.00,,OVC070,0.25,VWS V14.01,2013-06-13 05:17:00,
2013-06-12 22:18:00,51.0,49.0,30.08,SSE,147,0.0,2.0,93,0.00,,OVC070,0.25,VWS V14.01,2013-06-13 05:18:00,
2013-06-12 22:19:00,51.0,49.0,30.08,SSE,147,0.0,2.0,93,0.00,,OVC070,0.25,VWS V14.01,2013-06-13 05:19:00,
2013-06-12 22:21:00,51.0,49.3,30.08,SSE,147,0.0,0.0,94,0.00,,OVC070,0.25,VWS V14.01,2013-06-13 05:21:00,
2013-06-12 22:22:00,51.0,49.3,30.08,SSE,147,0.0,2.0,94,0.00,,OVC070,0.25,VWS V14.01,2013-06-13 05:22:00,
2013-06-12 22:23:00,51.0,49.3,30.08,SSE,147,0.0,2.0,94,0.00,,OVC070,0.25,VWS V14.01,2013-06-13 05:23:00,
2013-06-12 22:26:00,51.0,49.3,30.08,SSE,147,0.0,0.0,94,0.00,,OVC070,0.25,VWS V14.01,2013-06-13 05:26:00,
2013-06-12 22:27:00,51.0,49.3,30.08,SSE,147,0.0,0.0,94,0.00,,OVC070,0.25,VWS V14.01,2013-06-13 05:27:00,
2013-06-12 22:28:00,51.0,49.3,30.08,SSE,147,0.0,0.0,94,0.00,,OVC070,0.25,VWS V14.01,2013-06-13 05:28:00,
2013-06-12 22:30:00,51.0,49.3,30.08,SSE,147,0.0,0.0,94,0.01,,OVC070,0.26,VWS V14.01,2013-06-13 05:30:00,
2013-06-12 22:33:00,51.0,49.3,30.08,SSE,147,0.0,0.0,94,0.02,,OVC070,0.27,VWS V14.01,2013-06-13 05:33:00,
2013-06-12 22:34:00,51.0,49.3,30.08,SSE,147,0.0,0.0,94,0.02,,OVC070,0.27,VWS V14.01,2013-06-13 05:34:00,
2013-06-12 22:35:00,51.0,49.3,30.08,SSE,147,0.0,0.0,94,0.03,,OVC070,0.28,VWS V14.01,2013-06-13 05:35:00,
2013-06-12 22:36:00,51.0,49.3,30.08,SSE,147,0.0,0.0,94,0.03,,OVC070,0.28,VWS V14.01,2013-06-13 05:36:00,
2013-06-12 22:38:00,51.0,49.3,30.08,SSE,147,0.0,0.0,94,0.03,,OVC070,0.28,VWS V14.01,2013-06-13 05:38:00,
2013-06-12 22:39:00,51.0,49.3,30.08,SSE,147,0.0,0.0,94,0.03,,OVC070,0.28,VWS V14.01,2013-06-13 05:39:00,
2013-06-12 22:41:00,51.0,49.3,30.08,SSE,147,0.0,1.0,94,0.04,,OVC070,0.29,VWS V14.01,2013-06-13 05:41:00,
2013-06-12 22:46:00,51.0,49.3,30.08,SSE,147,0.0,0.0,94,0.04,,OVC070,0.29,VWS V14.01,2013-06-13 05:46:00,
2013-06-12 22:47:00,51.0,49.3,30.08,SSE,147,0.0,0.0,94,0.04,,OVC070,0.29,VWS V14.01,2013-06-13 05:47:00,
2013-06-12 22:48:00,51.0,49.3,30.08,SSE,147,0.0,0.0,94,0.04,,OVC070,0.29,VWS V14.01,2013-06-13 05:48:00,
2013-06-12 22:49:00,51.0,49.3,30.08,SSE,147,0.0,0.0,94,0.05,,OVC070,0.30,VWS V14.01,2013-06-13 05:49:00,
2013-06-12 22:52:00,51.0,49.3,30.08,SSE,147,0.0,0.0,94,0.05,,OVC070,0.30,VWS V14.01,2013-06-13 05:52:00,
2013-06-12 22:54:00,51.0,49.3,30.08,SSE,147,0.0,0.0,94,0.05,,OVC070,0.30,VWS V14.01,2013-06-13 05:54:00,
2013-06-12 22:55:00,51.0,49.3,30.08,SSE,147,0.0,0.0,94,0.05,,OVC070,0.30,VWS V14.01,2013-06-13 05:55:00,
2013-06-12 22:56:00,51.0,49.3,30.08,SSE,147,0.0,0.0,94,0.05,,OVC070,0.30,VWS V14.01,2013-06-13 05:56:00,
2013-06-12 22:58:00,51.0,49.3,30.08,SSE,147,0.0,0.0,94,0.05,,OVC070,0.30,VWS V14.01,2013-06-13 05:58:00,
2013-06-12 23:00:00,51.0,49.3,30.08,SSE,147,0.0,0.0,94,0.05,,OVC065,0.30,VWS V14.01,2013-06-13 06:00:00,
2013-06-12 23:01:00,51.0,49.3,30.08,SSE,147,0.0,0.0,94,0.05,,OVC065,0.30,VWS V14.01,2013-06-13 06:01:00,
2013-06-12 23:02:00,51.0,49.3,30.08,SSE,147,0.0,0.0,94,0.05,,OVC065,0.30,VWS V14.01,2013-06-13 06:02:00,
2013-06-12 23:04:00,51.0,49.3,30.08,SSE,147,0.0,0.0,94,0.05,,OVC065,0.30,VWS V14.01,2013-06-13 06:04:00,
2013-06-12 23:06:00,51.0,49.3,30.08,SE,140,0.0,0.0,94,0.05,,OVC065,0.30,VWS V14.01,2013-06-13 06:06:00,
2013-06-12 23:08:00,51.0,49.3,30.08,SSE,147,0.0,0.0,94,0.05,,OVC065,0.30,VWS V14.01,2013-06-13 06:08:00,
2013-06-12 23:11:00,51.0,49.6,30.08,SSE,147,0.0,0.0,95,0.05,,OVC065,0.30,VWS V14.01,2013-06-13 06:11:00,
2013-06-12 23:12:00,51.0,49.6,30.08,SSE,147,0.0,0.0,95,0.05,,OVC065,0.30,VWS V14.01,2013-06-13 06:12:00,
2013-06-12 23:14:00,51.0,49.6,30.08,SSE,147,0.0,0.0,95,0.05,,OVC065,0.30,VWS V14.01,2013-06-13 06:14:00,
2013-06-12 23:15:00,51.0,49.6,30.08,SSE,147,0.0,0.0,95,0.05,,OVC065,0.30,VWS V14.01,2013-06-13 06:15:00,
2013-06-12 23:17:00,51.0,49.6,30.08,SSE,147,0.0,0.0,95,0.06,,OVC065,0.31,VWS V14.01,2013-06-13 06:17:00,
2013-06-12 23:21:00,51.0,49.6,30.08,SSE,147,0.0,0.0,95,0.06,,OVC065,0.31,VWS V14.01,2013-06-13 06:21:00,
2013-06-12 23:22:00,51.0,49.6,30.08,SSE,147,0.0,0.0,95,0.07,,OVC065,0.32,VWS V14.01,2013-06-13 06:22:00,
2013-06-12 23:25:00,51.0,49.6,30.08,SSE,147,0.0,0.0,95,0.07,,OVC065,0.32,VWS V14.01,2013-06-13 06:25:00,
2013-06-12 23:26:00,51.0,49.6,30.08,SSE,147,0.0,0.0,95,0.07,,OVC065,0.32,VWS V14.01,2013-06-13 06:26:00,
2013-06-12 23:28:00,51.0,49.6,30.08,SSE,147,0.0,2.0,95,0.07,,OVC065,0.32,VWS V14.01,2013-06-13 06:28:00,
2013-06-12 23:31:00,51.0,49.6,30.08,SSE,147,0.0,2.0,95,0.07,,OVC065,0.32,VWS V14.01,2013-06-13 06:31:00,
2013-06-12 23:32:00,51.0,49.6,30.08,SSE,147,0.0,0.0,95,0.06,,OVC065,0.32,VWS V14.01,2013-06-13 06:32:00,
2013-06-12 23:36:00,51.0,49.6,30.08,SSE,147,0.0,0.0,95,0.04,,OVC065,0.32,VWS V14.01,2013-06-13 06:36:00,
2013-06-12 23:37:00,51.0,49.6,30.08,SSE,147,0.0,0.0,95,0.04,,OVC065,0.32,VWS V14.01,2013-06-13 06:37:00,
2013-06-12 23:40:00,51.0,49.6,30.08,SSE,147,0.0,0.0,95,0.04,,OVC065,0.32,VWS V14.01,2013-06-13 06:40:00,
2013-06-12 23:41:00,51.0,49.6,30.08,SSE,147,0.0,0.0,95,0.03,,OVC065,0.32,VWS V14.01,2013-06-13 06:41:00,
2013-06-12 23:42:00,51.0,49.6,30.08,SSE,147,0.0,0.0,95,0.03,,OVC065,0.32,VWS V14.01,2013-06-13 06:42:00,
2013-06-12 23:44:00,50.8,49.4,30.08,SSE,147,1.0,2.0,95,0.03,,OVC065,0.32,VWS V14.01,2013-06-13 06:44:00,
2013-06-12 23:45:00,50.8,49.4,30.08,SSE,147,1.0,2.0,95,0.03,,OVC065,0.32,VWS V14.01,2013-06-13 06:45:00,
2013-06-12 23:46:00,50.8,49.4,30.08,SSE,147,1.0,2.0,95,0.03,,OVC065,0.32,VWS V14.01,2013-06-13 06:46:00,
2013-06-12 23:47:00,50.8,49.4,30.08,SSE,147,0.0,1.0,95,0.03,,OVC065,0.32,VWS V14.01,2013-06-13 06:47:00,
2013-06-12 23:50:00,50.8,49.4,30.08,SSE,147,1.0,2.0,95,0.03,,OVC065,0.32,VWS V14.01,2013-06-13 06:50:00,
2013-06-12 23:51:00,50.8,49.4,30.08,SSE,147,0.0,0.0,95,0.02,,OVC065,0.32,VWS V14.01,2013-06-13 06:51:00,
2013-06-12 23:52:00,50.8,49.4,30.08,SSE,147,0.0,0.0,95,0.02,,OVC065,0.32,VWS V14.01,2013-06-13 06:52:00,
2013-06-12 23:56:00,50.8,49.4,30.08,SSE,147,2.0,2.0,95,0.02,,OVC065,0.32,VWS V14.01,2013-06-13 06:56:00,
2013-06-12 23:57:00,50.7,49.3,30.08,SSE,147,0.0,2.0,95,0.02,,OVC065,0.32,VWS V14.01,2013-06-13 06:57:00,